createdAt,value
2023-02-19T00:00:49.425Z,100493.91
2023-02-19T00:04:07.865Z,100493.41
2023-02-19T00:07:10.398Z,100489.13
2023-02-19T00:10:13.494Z,100496.59
2023-02-19T00:13:16.077Z,100492.50
2023-02-19T00:16:22.758Z,100493.41
2023-02-19T00:19:25.441Z,100491.72
2023-02-19T00:22:28.534Z,100484.19
2023-02-19T00:25:31.076Z,100482.78
2023-02-19T00:28:35.518Z,100496.16
2023-02-19T00:31:38.331Z,100484.34
2023-02-19T00:34:41.281Z,100487.72
2023-02-19T00:37:43.885Z,100477.31
2023-02-19T00:40:46.906Z,100472.25
2023-02-19T00:43:56.553Z,100463.53
2023-02-19T00:46:59.396Z,100477.59
2023-02-19T00:50:02.050Z,100483.12
2023-02-19T00:53:05.017Z,100472.22
2023-02-19T00:56:09.151Z,100480.34
2023-02-19T00:59:12.219Z,100479.25
2023-02-19T01:02:14.786Z,100483.47
2023-02-19T01:05:17.931Z,100492.62
2023-02-19T01:08:21.226Z,100487.50
2023-02-19T01:11:24.249Z,100492.94
2023-02-19T01:14:27.377Z,100486.06
2023-02-19T01:17:30.281Z,100471.59
2023-02-19T01:20:39.698Z,100486.47
2023-02-19T01:23:44.243Z,100466.66
2023-02-19T01:26:46.803Z,100466.69
2023-02-19T01:29:49.607Z,100459.31
2023-02-19T01:32:52.238Z,100464.31
2023-02-19T01:35:55.279Z,100464.66
2023-02-19T01:39:00.289Z,100465.62
2023-02-19T01:42:05.227Z,100470.81
2023-02-19T01:45:21.735Z,100461.47
2023-02-19T01:48:37.746Z,100473.56
2023-02-19T01:51:53.670Z,100466.16
2023-02-19T01:54:57.753Z,100466.69
2023-02-19T01:58:01.793Z,100458.53
2023-02-19T02:01:07.074Z,100476.34
2023-02-19T02:04:13.385Z,100469.44
2023-02-19T02:07:35.728Z,100444.28
2023-02-19T02:10:38.841Z,100454.06
2023-02-19T02:13:41.746Z,100453.38
2023-02-19T02:17:17.838Z,100450.72
2023-02-19T02:21:04.465Z,100447.81
2023-02-19T02:24:07.033Z,100429.34
2023-02-19T02:27:31.157Z,100411.38
2023-02-19T02:30:46.114Z,100421.34
2023-02-19T02:33:59.273Z,100430.34
2023-02-19T02:37:04.319Z,100426.03
2023-02-19T02:40:10.841Z,100415.63
2023-02-19T02:43:14.360Z,100430.53
2023-02-19T02:46:26.409Z,100429.03
2023-02-19T02:49:29.754Z,100442.03
2023-02-19T02:52:56.028Z,100440.28
2023-02-19T02:56:00.446Z,100437.37
2023-02-19T02:59:08.243Z,100434.25
2023-02-19T03:02:19.316Z,100443.44
2023-02-19T03:05:45.734Z,100446.03
2023-02-19T03:08:59.048Z,100460.06
2023-02-19T03:12:24.077Z,100452.22
2023-02-19T03:15:51.147Z,100452.47
2023-02-19T03:19:15.782Z,100450.06
2023-02-19T03:22:25.570Z,100455.03
2023-02-19T03:25:50.785Z,100450.06
2023-02-19T03:29:14.698Z,100455.38
2023-02-19T03:32:34.926Z,100457.78
2023-02-19T03:35:49.664Z,100466.88
2023-02-19T03:38:59.238Z,100456.34
2023-02-19T03:42:13.633Z,100447.31
2023-02-19T03:45:32.179Z,100463.75
2023-02-19T03:49:09.167Z,100462.66
2023-02-19T03:52:25.648Z,100472.16
2023-02-19T03:55:47.884Z,100476.38
2023-02-19T03:59:31.510Z,100473.78
2023-02-19T04:03:00.670Z,100468.28
2023-02-19T04:06:12.141Z,100457.94
2023-02-19T04:09:16.874Z,100460.75
2023-02-19T04:12:23.591Z,100458.16
2023-02-19T04:15:31.825Z,100461.59
2023-02-19T04:18:41.023Z,100459.31
2023-02-19T04:21:45.070Z,100467.63
2023-02-19T04:24:50.885Z,100457.87
2023-02-19T04:27:53.634Z,100462.59
2023-02-19T04:30:56.533Z,100465.56
2023-02-19T04:33:59.060Z,100467.44
2023-02-19T04:37:01.954Z,100473.06
2023-02-19T04:40:04.904Z,100465.09
2023-02-19T04:43:08.046Z,100465.81
2023-02-19T04:46:10.589Z,100476.25
2023-02-19T04:49:13.451Z,100472.59
2023-02-19T04:52:16.114Z,100469.25
2023-02-19T04:55:18.974Z,100472.72
2023-02-19T04:58:21.851Z,100473.88
2023-02-19T05:01:25.621Z,100455.62
2023-02-19T05:04:28.291Z,100454.22
2023-02-19T05:07:31.248Z,100450.69
2023-02-19T05:10:34.019Z,100461.13
2023-02-19T05:13:37.983Z,100441.50
2023-02-19T05:16:40.565Z,100444.31
2023-02-19T05:19:43.446Z,100448.59
2023-02-19T05:22:46.011Z,100454.25
2023-02-19T05:25:48.890Z,100460.22
2023-02-19T05:28:53.254Z,100451.28
2023-02-19T05:31:56.446Z,100458.47
2023-02-19T05:34:59.173Z,100465.03
2023-02-19T05:38:02.035Z,100459.62
2023-02-19T05:41:12.560Z,100456.72
2023-02-19T05:44:15.583Z,100458.88
2023-02-19T05:47:18.111Z,100442.16
2023-02-19T05:50:22.705Z,100450.63
2023-02-19T05:53:25.206Z,100456.84
2023-02-19T05:56:39.273Z,100457.75
2023-02-19T05:59:41.894Z,100456.59
2023-02-19T06:02:45.538Z,100447.25
2023-02-19T06:05:49.001Z,100454.31
2023-02-19T06:08:51.976Z,100468.97
2023-02-19T06:11:54.874Z,100479.22
2023-02-19T06:14:57.462Z,100488.37
2023-02-19T06:18:00.889Z,100476.59
2023-02-19T06:21:05.557Z,100461.69
2023-02-19T06:24:09.841Z,100450.13
2023-02-19T06:27:12.478Z,100443.75
2023-02-19T06:30:15.592Z,100439.59
2023-02-19T06:33:19.466Z,100432.78
2023-02-19T06:36:23.494Z,100447.72
2023-02-19T06:39:26.947Z,100445.75
2023-02-19T06:42:32.858Z,100432.88
2023-02-19T06:45:35.701Z,100427.81
2023-02-19T06:48:40.111Z,100427.81
2023-02-19T06:51:42.763Z,100432.03
2023-02-19T06:54:45.692Z,100441.41
2023-02-19T06:57:48.334Z,100452.44
2023-02-19T07:00:51.602Z,100443.50
2023-02-19T07:03:54.165Z,100438.50
2023-02-19T07:06:57.374Z,100440.06
2023-02-19T07:09:59.985Z,100451.81
2023-02-19T07:13:02.966Z,100443.56
2023-02-19T07:16:08.517Z,100445.97
2023-02-19T07:19:12.102Z,100449.78
2023-02-19T07:22:14.710Z,100434.59
2023-02-19T07:25:17.652Z,100441.09
2023-02-19T07:28:20.226Z,100446.66
2023-02-19T07:31:24.086Z,100440.06
2023-02-19T07:34:26.934Z,100433.97
2023-02-19T07:37:29.945Z,100422.41
2023-02-19T07:40:32.513Z,100420.28
2023-02-19T07:43:37.626Z,100419.87
2023-02-19T07:46:40.522Z,100418.66
2023-02-19T07:49:43.290Z,100420.66
2023-02-19T07:52:46.093Z,100427.44
2023-02-19T07:55:49.564Z,100428.13
2023-02-19T07:58:52.309Z,100434.44
2023-02-19T08:02:13.470Z,100439.88
2023-02-19T08:05:16.653Z,100443.87
2023-02-19T08:08:19.405Z,100450.03
2023-02-19T08:11:40.837Z,100445.53
2023-02-19T08:14:43.481Z,100471.19
2023-02-19T08:17:46.423Z,100464.97
2023-02-19T08:20:49.675Z,100457.75
2023-02-19T08:23:52.461Z,100477.66
2023-02-19T08:26:55.086Z,100467.87
2023-02-19T08:29:58.110Z,100468.00
2023-02-19T08:33:02.477Z,100479.38
2023-02-19T08:36:07.493Z,100486.38
2023-02-19T08:39:11.843Z,100478.94
2023-02-19T08:42:14.699Z,100482.78
2023-02-19T08:45:17.927Z,100457.78
2023-02-19T08:48:20.882Z,100454.63
2023-02-19T08:51:23.546Z,100457.75
2023-02-19T08:54:26.410Z,100459.44
2023-02-19T08:57:29.315Z,100455.44
2023-02-19T09:00:32.514Z,100458.88
2023-02-19T09:03:35.492Z,100454.00
2023-02-19T09:06:40.107Z,100467.97
2023-02-19T09:09:42.965Z,100448.22
2023-02-19T09:12:48.869Z,100453.72
2023-02-19T09:15:51.555Z,100467.00
2023-02-19T09:18:54.542Z,100463.78
2023-02-19T09:21:57.111Z,100460.63
2023-02-19T09:25:00.110Z,100447.56
2023-02-19T09:28:02.662Z,100453.44
2023-02-19T09:31:07.598Z,100456.56
2023-02-19T09:34:11.777Z,100462.16
2023-02-19T09:37:14.720Z,100451.72
2023-02-19T09:40:21.742Z,100452.09
2023-02-19T09:43:28.030Z,100455.38
2023-02-19T09:46:35.013Z,100435.69
2023-02-19T09:49:49.867Z,100439.03
2023-02-19T09:52:58.341Z,100430.75
2023-02-19T09:56:01.634Z,100434.16
2023-02-19T09:59:05.113Z,100421.66
2023-02-19T10:02:23.713Z,100422.41
2023-02-19T10:05:27.331Z,100416.81
2023-02-19T10:08:33.517Z,100413.72
2023-02-19T10:11:37.508Z,100397.78
2023-02-19T10:14:44.822Z,100385.00
2023-02-19T10:17:47.820Z,100392.09
2023-02-19T10:20:52.354Z,100389.44
2023-02-19T10:24:02.737Z,100377.38
2023-02-19T10:27:12.305Z,100396.03
2023-02-19T10:30:21.958Z,100367.47
2023-02-19T10:33:25.307Z,100364.12
2023-02-19T10:36:41.022Z,100339.72
2023-02-19T10:39:49.404Z,100337.94
2023-02-19T10:42:57.128Z,100331.78
2023-02-19T10:46:03.894Z,100320.34
2023-02-19T10:49:16.783Z,100327.00
2023-02-19T10:52:29.402Z,100325.41
2023-02-19T10:55:37.834Z,100316.41
2023-02-19T10:58:44.756Z,100325.69
2023-02-19T11:01:57.860Z,100304.75
2023-02-19T11:05:09.464Z,100305.00
2023-02-19T11:08:22.493Z,100281.25
2023-02-19T11:11:35.291Z,100295.03
2023-02-19T11:14:43.162Z,100276.00
2023-02-19T11:17:53.904Z,100281.59
2023-02-19T11:21:03.815Z,100287.31
2023-02-19T11:24:06.725Z,100315.41
2023-02-19T11:27:24.629Z,100275.25
2023-02-19T11:30:30.586Z,100244.06
2023-02-19T11:33:33.749Z,100267.50
2023-02-19T11:36:38.036Z,100247.63
2023-02-19T11:39:43.627Z,100240.53
2023-02-19T11:43:05.709Z,100238.69
2023-02-19T11:46:14.239Z,100243.19
2023-02-19T11:49:54.601Z,100239.53
2023-02-19T11:53:12.723Z,100226.97
2023-02-19T11:56:19.519Z,100223.09
2023-02-19T11:59:51.422Z,100223.37
2023-02-19T12:03:12.204Z,100228.41
2023-02-19T12:06:22.248Z,100210.06
2023-02-19T12:09:55.371Z,100207.81
2023-02-19T12:12:58.175Z,100200.75
2023-02-19T12:16:31.611Z,100222.56
2023-02-19T12:19:43.861Z,100220.88
2023-02-19T12:22:56.218Z,100232.34
2023-02-19T12:26:36.571Z,100199.63
2023-02-19T12:29:48.514Z,100188.09
2023-02-19T12:33:11.729Z,100197.69
2023-02-19T12:36:38.117Z,100215.56
2023-02-19T12:40:18.842Z,100203.84
2023-02-19T12:43:23.401Z,100226.03
2023-02-19T12:46:38.159Z,100224.66
2023-02-19T12:49:47.146Z,100247.44
2023-02-19T12:53:08.143Z,100276.03
2023-02-19T12:56:17.464Z,100240.81
2023-02-19T12:59:35.382Z,100225.34
2023-02-19T13:02:59.017Z,100235.81
2023-02-19T13:06:13.649Z,100236.72
2023-02-19T13:09:54.818Z,100235.59
2023-02-19T13:13:03.857Z,100232.41
2023-02-19T13:16:13.277Z,100230.78
2023-02-19T13:19:16.634Z,100231.75
2023-02-19T13:22:48.904Z,100245.00
2023-02-19T13:26:30.500Z,100241.94
2023-02-19T13:30:11.311Z,100235.00
2023-02-19T13:33:21.384Z,100256.12
2023-02-19T13:36:26.489Z,100239.06
2023-02-19T13:39:31.132Z,100223.72
2023-02-19T13:42:37.166Z,100234.88
2023-02-19T13:45:46.356Z,100264.47
2023-02-19T13:49:24.445Z,100251.31
2023-02-19T13:52:30.262Z,100263.09
2023-02-19T13:55:52.473Z,100241.34
2023-02-19T13:59:01.542Z,100262.81
2023-02-19T14:02:04.228Z,100261.28
2023-02-19T14:05:10.893Z,100271.19
2023-02-19T14:08:33.659Z,100290.09
2023-02-19T14:11:42.903Z,100294.72
2023-02-19T14:14:46.482Z,100307.16
2023-02-19T14:17:49.496Z,100303.91
2023-02-19T14:21:14.074Z,100320.19
2023-02-19T14:24:17.178Z,100320.16
2023-02-19T14:27:20.987Z,100335.44
2023-02-19T14:30:28.086Z,100343.75
2023-02-19T14:33:37.715Z,100340.72
2023-02-19T14:36:51.721Z,100356.81
2023-02-19T14:39:57.716Z,100356.41
2023-02-19T14:43:02.574Z,100371.41
2023-02-19T14:46:16.567Z,100380.53
2023-02-19T14:49:28.798Z,100378.50
2023-02-19T14:52:40.181Z,100363.59
2023-02-19T14:55:46.282Z,100370.13
2023-02-19T14:59:26.192Z,100370.31
2023-02-19T15:02:32.081Z,100369.34
2023-02-19T15:05:37.438Z,100369.13
2023-02-19T15:08:46.532Z,100376.94
2023-02-19T15:11:49.497Z,100384.19
2023-02-19T15:14:59.904Z,100385.38
2023-02-19T15:18:05.081Z,100388.25
2023-02-19T15:21:19.033Z,100389.13
2023-02-19T15:24:22.175Z,100394.84
2023-02-19T15:27:25.764Z,100395.66
2023-02-19T15:30:31.321Z,100397.44
2023-02-19T15:33:34.991Z,100375.16
2023-02-19T15:36:37.849Z,100358.00
2023-02-19T15:39:47.199Z,100361.22
2023-02-19T15:42:50.284Z,100366.56
2023-02-19T15:45:59.699Z,100373.72
2023-02-19T15:49:38.049Z,100366.34
2023-02-19T15:53:12.498Z,100366.37
2023-02-19T15:56:32.022Z,100375.44
2023-02-19T15:59:42.899Z,100372.84
2023-02-19T16:02:46.724Z,100389.50
2023-02-19T16:06:10.470Z,100387.91
2023-02-19T16:09:48.132Z,100391.66
2023-02-19T16:12:59.240Z,100389.84
2023-02-19T16:16:21.489Z,100403.66
2023-02-19T16:19:28.592Z,100385.72
2023-02-19T16:22:40.517Z,100414.94
2023-02-19T16:25:44.840Z,100424.31
2023-02-19T16:28:52.873Z,100425.06
2023-02-19T16:31:57.535Z,100436.66
2023-02-19T16:35:00.155Z,100439.25
2023-02-19T16:38:03.411Z,100457.03
2023-02-19T16:41:16.466Z,100467.50
2023-02-19T16:44:27.404Z,100481.75
2023-02-19T16:47:32.767Z,100459.53
2023-02-19T16:50:41.396Z,100454.44
2023-02-19T16:53:44.209Z,100458.34
2023-02-19T16:56:47.426Z,100468.78
2023-02-19T16:59:50.386Z,100462.12
2023-02-19T17:02:58.549Z,100456.63
2023-02-19T17:06:01.419Z,100471.75
2023-02-19T17:09:06.598Z,100491.37
2023-02-19T17:12:12.160Z,100482.03
2023-02-19T17:15:15.550Z,100499.94
2023-02-19T17:18:18.614Z,100494.09
2023-02-19T17:21:23.067Z,100494.13
2023-02-19T17:24:25.888Z,100487.66
2023-02-19T17:27:29.648Z,100486.78
2023-02-19T17:30:33.667Z,100487.47
2023-02-19T17:33:37.794Z,100503.78
2023-02-19T17:36:42.933Z,100493.03
2023-02-19T17:39:46.063Z,100493.78
2023-02-19T17:42:49.005Z,100508.16
2023-02-19T17:45:53.240Z,100515.22
2023-02-19T17:48:56.215Z,100523.66
2023-02-19T17:51:59.651Z,100527.44
2023-02-19T17:55:02.485Z,100520.72
2023-02-19T17:58:06.689Z,100532.16
2023-02-19T18:01:10.220Z,100521.84
2023-02-19T18:04:14.741Z,100538.06
2023-02-19T18:07:17.621Z,100542.25
2023-02-19T18:10:23.416Z,100548.50
2023-02-19T18:13:26.510Z,100551.12
2023-02-19T18:16:29.945Z,100574.62
2023-02-19T18:19:33.364Z,100553.75
2023-02-19T18:22:40.545Z,100562.22
2023-02-19T18:25:43.418Z,100565.84
2023-02-19T18:28:46.535Z,100583.59
2023-02-19T18:31:49.478Z,100598.62
2023-02-19T18:34:55.249Z,100597.34
2023-02-19T18:37:58.216Z,100612.69
2023-02-19T18:41:01.542Z,100618.31
2023-02-19T18:44:04.905Z,100633.28
2023-02-19T18:47:09.092Z,100649.72
2023-02-19T18:50:13.491Z,100643.97
2023-02-19T18:53:16.793Z,100648.84
2023-02-19T18:56:19.848Z,100666.94
2023-02-19T18:59:24.174Z,100676.88
2023-02-19T19:02:31.476Z,100673.34
2023-02-19T19:05:37.967Z,100690.59
2023-02-19T19:08:41.401Z,100688.22
2023-02-19T19:11:46.546Z,100692.66
2023-02-19T19:14:49.445Z,100691.19
2023-02-19T19:17:52.854Z,100700.50
2023-02-19T19:21:01.607Z,100690.00
2023-02-19T19:24:04.913Z,100697.91
2023-02-19T19:27:08.117Z,100689.28
2023-02-19T19:30:13.149Z,100681.63
2023-02-19T19:33:17.752Z,100678.06
2023-02-19T19:36:22.685Z,100673.06
2023-02-19T19:39:25.599Z,100683.31
2023-02-19T19:42:29.065Z,100673.91
2023-02-19T19:45:32.243Z,100692.72
2023-02-19T19:48:35.715Z,100698.81
2023-02-19T19:51:39.478Z,100695.50
2023-02-19T19:54:43.398Z,100693.81
2023-02-19T19:57:46.280Z,100704.06
2023-02-19T20:00:53.937Z,100704.91
2023-02-19T20:03:57.416Z,100705.19
2023-02-19T20:07:00.964Z,100694.91
2023-02-19T20:10:06.027Z,100733.53
2023-02-19T20:13:10.648Z,100741.44
2023-02-19T20:16:14.662Z,100757.19
2023-02-19T20:19:18.801Z,100772.66
2023-02-19T20:22:21.850Z,100760.03
2023-02-19T20:25:24.913Z,100780.44
2023-02-19T20:28:28.109Z,100789.22
2023-02-19T20:31:31.247Z,100803.16
2023-02-19T20:34:34.408Z,100801.69
2023-02-19T20:37:41.825Z,100823.25
2023-02-19T20:40:45.484Z,100830.19
2023-02-19T20:43:48.380Z,100834.50
2023-02-19T20:46:52.309Z,100852.12
2023-02-19T20:49:55.204Z,100853.97
2023-02-19T20:52:58.315Z,100868.78
2023-02-19T20:56:01.179Z,100873.25
2023-02-19T20:59:04.253Z,100882.06
2023-02-19T21:02:20.610Z,100871.91
2023-02-19T21:05:23.616Z,100881.66
2023-02-19T21:08:26.432Z,100891.13
2023-02-19T21:11:29.537Z,100887.75
2023-02-19T21:14:32.528Z,100899.13
2023-02-19T21:17:35.709Z,100888.81
2023-02-19T21:20:39.691Z,100889.19
2023-02-19T21:23:42.877Z,100895.47
2023-02-19T21:26:45.876Z,100903.41
2023-02-19T21:29:48.981Z,100913.75
2023-02-19T21:32:51.735Z,100913.91
2023-02-19T21:35:54.646Z,100913.16
2023-02-19T21:38:57.322Z,100920.91
2023-02-19T21:42:00.463Z,100931.34
2023-02-19T21:45:03.766Z,100931.47
2023-02-19T21:48:08.242Z,100928.16
2023-02-19T21:51:10.937Z,100943.59
2023-02-19T21:54:16.711Z,100930.78
2023-02-19T21:57:19.308Z,100937.75
2023-02-19T22:00:22.310Z,100942.16
2023-02-19T22:03:26.603Z,100948.25
2023-02-19T22:06:31.055Z,100938.91
2023-02-19T22:09:34.013Z,100930.41
2023-02-19T22:12:36.534Z,100932.97
2023-02-19T22:15:39.460Z,100940.84
2023-02-19T22:18:52.963Z,100937.41
2023-02-19T22:21:55.817Z,100937.41
2023-02-19T22:24:58.405Z,100934.84
2023-02-19T22:28:04.219Z,100936.53
2023-02-19T22:31:07.977Z,100951.19
2023-02-19T22:34:10.880Z,100950.47
2023-02-19T22:37:13.505Z,100959.09
2023-02-19T22:40:16.648Z,100967.66
2023-02-19T22:43:19.263Z,100953.09
2023-02-19T22:46:24.984Z,100960.75
2023-02-19T22:49:27.590Z,100968.59
2023-02-19T22:52:30.476Z,100961.78
2023-02-19T22:55:33.320Z,100964.41
2023-02-19T22:58:36.205Z,100962.66
2023-02-19T23:01:38.965Z,100972.13
2023-02-19T23:04:41.985Z,100984.97
2023-02-19T23:07:45.790Z,100998.69
2023-02-19T23:10:49.516Z,101002.06
2023-02-19T23:13:53.347Z,101014.09
2023-02-19T23:16:56.228Z,101015.00
2023-02-19T23:19:58.912Z,101028.81
2023-02-19T23:23:01.911Z,101030.53
2023-02-19T23:26:04.637Z,101034.81
2023-02-19T23:29:07.547Z,101045.09
2023-02-19T23:32:10.363Z,101052.88
2023-02-19T23:35:13.762Z,101062.25
2023-02-19T23:38:16.322Z,101050.31
2023-02-19T23:41:19.515Z,101055.47
2023-02-19T23:44:25.221Z,101059.75
2023-02-19T23:47:30.552Z,101066.69
2023-02-19T23:50:39.517Z,101070.97
2023-02-19T23:53:42.360Z,101072.72
2023-02-19T23:56:44.954Z,101080.41
2023-02-19T23:59:49.162Z,101086.38
